Time;durP1;ratioP1;P1;durP2;ratioP2;P2;SDS_P1;SDS_P2;PMS_P1;PMS_P2;Temp;Humidity;BMP_temperature;BMP_pressure;BME280_temperature;BME280_humidity;BME280_pressure;Samples;Min_cycle;Max_cycle;Signal;HPM_P1;HPM_P2
2021/07/20 00:00:10;;;;;;;7.90;4.97;;;;;;;25.53;41.46;99721.22;4915980;29;20046;-79
2021/07/20 00:02:49;;;;;;;10.73;5.45;;;;;;;25.64;40.88;99721.78;4915900;29;20377;-79
2021/07/20 00:05:23;;;;;;;6.93;4.28;;;;;;;25.71;40.52;99733.34;4916001;29;20055;-79
2021/07/20 00:07:56;;;;;;;9.82;4.68;;;;;;;25.82;40.44;99733.72;4898771;29;20087;-79
2021/07/20 00:10:47;;;;;;;8.68;4.18;;;;;;;25.74;40.32;99723.16;4915824;29;20108;-78
2021/07/20 00:13:15;;;;;;;12.77;5.00;;;;;;;25.76;40.12;99720.28;4915581;29;20079;-80
2021/07/20 00:15:42;;;;;;;8.10;4.70;;;;;;;25.64;40.35;99711.09;4915666;29;20091;-80
2021/07/20 00:18:15;;;;;;;8.82;4.40;;;;;;;25.66;40.31;99723.22;4916772;29;20067;-79
2021/07/20 00:20:43;;;;;;;9.55;5.10;;;;;;;25.65;39.72;99718.09;4919304;29;20150;-78
2021/07/20 00:23:10;;;;;;;6.15;4.07;;;;;;;25.66;39.32;99717.88;4919118;29;20066;-78
2021/07/20 00:25:37;;;;;;;9.73;4.82;;;;;;;25.64;40.28;99714.59;4900792;29;20045;-78
2021/07/20 00:28:04;;;;;;;9.27;3.67;;;;;;;25.63;39.24;99714.78;4916979;29;20074;-78
2021/07/20 00:30:33;;;;;;;11.15;4.18;;;;;;;25.68;39.45;99721.22;4919421;29;20399;-78
2021/07/20 00:33:00;;;;;;;9.95;4.70;;;;;;;25.82;39.94;99714.19;4918721;29;20045;-79
2021/07/20 00:35:27;;;;;;;10.88;4.75;;;;;;;25.74;39.09;99712.50;4902204;29;20048;-80
2021/07/20 00:37:55;;;;;;;10.82;5.03;;;;;;;25.77;39.46;99709.44;4902120;29;20570;-80
2021/07/20 00:40:23;;;;;;;9.20;4.50;;;;;;;25.80;38.52;99714.41;4902015;29;20048;-80
2021/07/20 00:42:56;;;;;;;7.28;4.15;;;;;;;25.68;38.38;99717.72;4902053;29;20058;-79
2021/07/20 00:45:24;;;;;;;9.90;5.20;;;;;;;25.68;38.28;99712.38;4918846;29;20164;-79
2021/07/20 00:47:51;;;;;;;7.55;4.25;;;;;;;25.69;38.65;99712.19;4918911;29;20048;-79
2021/07/20 00:50:23;;;;;;;10.13;5.20;;;;;;;25.77;38.30;99701.41;4901315;29;20044;-80
2021/07/20 00:52:52;;;;;;;9.35;4.78;;;;;;;25.80;38.53;99705.56;4927086;29;20052;-80
2021/07/20 00:55:20;;;;;;;10.90;4.72;;;;;;;25.87;38.80;99706.47;4918361;29;20496;-79
2021/07/20 00:57:48;;;;;;;9.45;4.75;;;;;;;25.89;38.37;99704.44;4918671;29;20055;-79
2021/07/20 01:00:19;;;;;;;7.47;4.57;;;;;;;25.85;38.10;99692.47;4918184;29;20048;-79
2021/07/20 01:02:50;;;;;;;11.85;5.10;;;;;;;25.96;38.38;99705.34;4918579;29;20052;-79
2021/07/20 01:05:25;;;;;;;8.63;4.15;;;;;;;25.99;38.49;99699.59;4901573;29;20052;-79
2021/07/20 01:07:54;;;;;;;9.07;4.32;;;;;;;25.88;37.59;99699.28;4901928;29;20048;-80
2021/07/20 01:10:24;;;;;;;16.75;5.93;;;;;;;25.95;36.98;99700.19;4901773;29;20051;-79
2021/07/20 01:12:51;;;;;;;8.50;4.70;;;;;;;25.96;36.66;99694.66;4918578;29;20044;-78
2021/07/20 01:15:23;;;;;;;12.77;5.13;;;;;;;25.92;37.07;99701.38;4901386;29;20471;-79
2021/07/20 01:17:54;;;;;;;5.57;3.97;;;;;;;25.86;36.53;99700.28;4912124;29;20044;-78
2021/07/20 01:20:24;;;;;;;11.38;3.83;;;;;;;25.83;36.65;99705.16;4918147;29;20076;-79
2021/07/20 01:23:05;;;;;;;15.35;5.85;;;;;;;25.80;37.42;99700.22;4901051;29;20495;-79
2021/07/20 01:25:36;;;;;;;12.60;5.25;;;;;;;25.81;36.92;99696.53;4901279;29;20048;-79
2021/07/20 01:28:13;;;;;;;9.90;4.88;;;;;;;25.94;36.31;99696.69;4900779;29;20127;-79
2021/07/20 01:30:42;;;;;;;16.23;4.60;;;;;;;25.87;35.64;99690.44;4900664;29;20135;-79
2021/07/20 01:33:14;;;;;;;13.52;5.60;;;;;;;25.95;35.28;99690.34;4900799;29;20052;-79
2021/07/20 01:35:45;;;;;;;10.80;4.85;;;;;;;26.00;36.15;99690.59;4917968;29;20076;-79
2021/07/20 01:38:13;;;;;;;6.95;4.10;;;;;;;25.94;34.78;99688.69;4901049;29;20059;-78
2021/07/20 01:40:42;;;;;;;22.25;4.45;;;;;;;26.00;35.78;99685.25;4900261;29;20056;-78
2021/07/20 01:43:12;;;;;;;11.93;5.03;;;;;;;25.94;35.94;99680.69;4900586;29;20040;-79
2021/07/20 01:45:44;;;;;;;;;;;;;;;25.96;34.81;99680.47;4901304;29;20044;-81
2021/07/20 01:48:12;;;;;;;12.48;4.30;;;;;;;25.99;35.45;99683.56;4917845;29;19966;-80
2021/07/20 01:50:39;;;;;;;13.30;5.05;;;;;;;25.96;34.08;99680.47;4900609;29;20435;-81
2021/07/20 01:53:10;;;;;;;8.38;5.05;;;;;;;25.98;34.50;99681.09;4900877;29;20479;-80
2021/07/20 01:55:38;;;;;;;9.40;5.03;;;;;;;25.96;34.84;99681.31;4917298;29;20082;-79
2021/07/20 01:58:06;;;;;;;20.20;5.43;;;;;;;25.98;34.23;99681.94;4917645;29;20058;-79
2021/07/20 02:00:48;;;;;;;9.85;4.50;;;;;;;25.90;33.93;99675.91;4917483;29;20044;-80
2021/07/20 02:09:01;;;;;;;12.55;4.25;;;;;;;26.03;35.10;99673.34;4917931;29;20436;-81
2021/07/20 02:11:34;;;;;;;12.55;4.45;;;;;;;25.96;34.65;99675.97;4900224;29;20048;-80
2021/07/20 02:14:10;;;;;;;9.88;4.07;;;;;;;26.00;33.39;99685.25;4900403;29;20048;-81
2021/07/20 02:16:59;;;;;;;10.77;3.70;;;;;;;26.05;33.37;99680.16;4916915;29;20074;-80
2021/07/20 02:19:35;;;;;;;11.57;4.32;;;;;;;25.96;32.95;99677.81;4900161;29;20487;-80
2021/07/20 02:22:07;;;;;;;14.07;4.80;;;;;;;25.83;33.06;99678.47;4916826;29;20571;-79
2021/07/20 02:24:36;;;;;;;9.50;3.83;;;;;;;25.92;34.32;99676.53;4917766;29;20435;-79
2021/07/20 02:27:07;;;;;;;8.65;4.47;;;;;;;25.86;33.78;99678.13;4899976;29;20506;-79
2021/07/20 02:30:14;;;;;;;17.50;4.40;;;;;;;25.82;33.80;99671.50;4905839;29;20132;-79
2021/07/20 02:32:44;;;;;;;13.10;5.25;;;;;;;25.69;33.44;99676.66;4899817;29;20070;-78
2021/07/20 02:35:25;;;;;;;13.85;4.80;;;;;;;25.75;33.72;99674.09;4899865;29;20066;-78
2021/07/20 02:37:56;;;;;;;10.50;4.53;;;;;;;25.69;33.41;99663.31;4899808;29;20051;-78
2021/07/20 02:40:27;;;;;;;15.73;4.35;;;;;;;25.65;33.49;99672.72;4899953;29;20571;-78
2021/07/20 02:42:57;;;;;;;13.30;4.32;;;;;;;25.60;33.79;99666.09;4916073;29;20127;-81
2021/07/20 02:45:30;;;;;;;10.32;3.65;;;;;;;25.61;34.18;99674.91;4899874;29;20127;-80
2021/07/20 02:47:58;;;;;;;14.48;5.68;;;;;;;25.47;33.92;99671.28;4916789;29;20048;-79
2021/07/20 02:50:29;;;;;;;7.65;3.72;;;;;;;25.45;34.31;99669.78;4899668;29;20040;-77
2021/07/20 02:53:10;;;;;;;11.75;4.75;;;;;;;25.50;34.39;99668.22;4899811;29;20111;-78
2021/07/20 02:55:50;;;;;;;16.60;4.07;;;;;;;25.48;35.08;99670.25;4899406;29;20052;-80
2021/07/20 02:58:18;;;;;;;13.68;4.60;;;;;;;25.43;33.58;99659.31;4916705;29;20491;-78
2021/07/20 03:00:46;;;;;;;9.15;3.88;;;;;;;25.53;34.61;99667.03;4916411;29;20072;-79
2021/07/20 03:03:14;;;;;;;8.88;4.05;;;;;;;25.63;33.14;99672.91;4899532;29;20072;-80
2021/07/20 03:05:48;;;;;;;16.95;5.22;;;;;;;25.61;33.40;99665.06;4916229;29;20055;-79
2021/07/20 03:08:27;;;;;;;13.10;4.45;;;;;;;25.59;32.95;99666.28;4899482;29;20052;-79
2021/07/20 03:11:05;;;;;;;18.38;5.68;;;;;;;25.63;34.26;99669.41;4899204;29;20072;-79
2021/07/20 03:13:36;;;;;;;12.95;4.28;;;;;;;25.59;33.37;99669.78;4899280;29;20127;-77
2021/07/20 03:16:08;;;;;;;12.77;3.55;;;;;;;25.60;33.01;99679.44;4914545;29;20044;-80
2021/07/20 03:18:42;;;;;;;9.48;4.20;;;;;;;25.42;33.57;99673.69;4916574;29;20044;-79
2021/07/20 03:21:11;;;;;;;14.73;4.28;;;;;;;25.44;34.17;99674.31;4898845;29;20048;-77
2021/07/20 03:23:43;;;;;;;10.73;4.68;;;;;;;25.37;33.63;99675.25;4916207;29;20056;-79
2021/07/20 03:26:11;;;;;;;13.45;5.93;;;;;;;25.35;33.94;99683.41;4898840;29;20052;-79
2021/07/20 03:28:42;;;;;;;13.13;5.32;;;;;;;25.37;35.13;99680.59;4899302;29;20047;-77
2021/07/20 03:31:15;;;;;;;13.45;4.43;;;;;;;25.33;34.12;99678.28;4916161;29;20048;-79
2021/07/20 03:33:51;;;;;;;9.20;4.50;;;;;;;25.29;34.40;99681.50;4899259;29;20044;-79
2021/07/20 03:36:33;;;;;;;20.88;4.82;;;;;;;25.20;35.09;99678.13;4899327;29;20052;-80
2021/07/20 03:39:03;;;;;;;7.90;4.45;;;;;;;25.13;35.54;99681.69;4899117;29;20048;-80
2021/07/20 03:41:33;;;;;;;10.65;4.75;;;;;;;25.14;34.70;99683.34;4899090;29;20096;-79
2021/07/20 03:44:02;;;;;;;11.63;4.35;;;;;;;25.19;34.67;99686.28;4898884;29;20407;-79
2021/07/20 03:46:31;;;;;;;16.92;4.25;;;;;;;25.22;34.73;99681.41;4899186;29;20052;-80
2021/07/20 03:48:59;;;;;;;15.65;4.88;;;;;;;25.35;34.80;99686.09;4915456;29;20048;-79
2021/07/20 03:51:42;;;;;;;14.65;5.30;;;;;;;25.19;34.17;99683.63;4899371;29;20044;-78
2021/07/20 03:54:10;;;;;;;10.98;3.70;;;;;;;25.29;34.60;99687.66;4901778;29;20522;-77
2021/07/20 03:56:41;;;;;;;11.45;5.20;;;;;;;25.32;34.27;99678.47;4902756;29;20063;-79
2021/07/20 03:59:11;;;;;;;13.23;4.47;;;;;;;25.27;34.38;99678.19;4902586;29;20563;-80
2021/07/20 04:01:59;;;;;;;14.50;4.47;;;;;;;25.26;34.63;99680.03;4920057;29;20059;-80
2021/07/20 04:04:35;;;;;;;10.52;4.15;;;;;;;25.24;34.03;99682.06;4902132;29;20041;-79
2021/07/20 04:07:11;;;;;;;15.50;4.30;;;;;;;25.49;34.91;99682.59;4900982;29;20075;-78
2021/07/20 04:10:00;;;;;;;15.63;4.70;;;;;;;25.48;33.63;99680.94;4910365;29;20508;-79
2021/07/20 04:12:53;;;;;;;9.95;4.20;;;;;;;25.59;34.17;99683.13;4917394;29;20040;-79
2021/07/20 04:15:51;;;;;;;10.10;4.97;;;;;;;25.63;34.08;99686.25;4899583;29;20172;-80
2021/07/20 04:18:23;;;;;;;13.75;4.50;;;;;;;25.76;33.34;99682.94;4919306;29;20487;-79
2021/07/20 04:20:52;;;;;;;15.55;5.22;;;;;;;25.89;34.00;99680.41;4919300;29;20056;-78
2021/07/20 04:23:21;;;;;;;11.50;4.68;;;;;;;25.94;33.00;99688.69;4902315;29;20044;-78
2021/07/20 04:25:58;;;;;;;8.90;4.38;;;;;;;26.07;33.27;99691.47;4901849;29;20476;-78
2021/07/20 04:28:29;;;;;;;13.45;4.53;;;;;;;26.12;34.00;99690.91;4902145;29;20044;-78
2021/07/20 04:30:58;;;;;;;10.23;4.72;;;;;;;26.12;32.78;99689.06;4901984;29;20100;-77
2021/07/20 04:33:31;;;;;;;17.27;5.30;;;;;;;26.18;33.73;99683.97;4902098;29;20396;-78
2021/07/20 04:36:18;;;;;;;11.07;4.60;;;;;;;25.90;34.10;99690.06;4918828;29;20059;-77
2021/07/20 04:38:48;;;;;;;8.40;4.13;;;;;;;25.88;34.53;99692.09;4902149;29;20571;-78
2021/07/20 04:41:20;;;;;;;13.32;5.38;;;;;;;25.84;34.43;99685.50;4901953;29;20044;-78
2021/07/20 04:43:47;;;;;;;10.60;3.85;;;;;;;25.97;33.78;99690.13;4909211;29;20273;-78
2021/07/20 04:46:25;;;;;;;24.00;6.72;;;;;;;26.07;35.00;99686.13;4919132;29;20462;-80
2021/07/20 04:48:58;;;;;;;11.55;5.90;;;;;;;26.05;34.49;99690.84;4894870;29;20449;-79
2021/07/20 04:51:31;;;;;;;12.55;5.43;;;;;;;25.99;34.48;99693.44;4901127;29;20044;-78
2021/07/20 04:54:03;;;;;;;7.53;3.97;;;;;;;25.99;34.00;99690.75;4917965;29;20551;-78
2021/07/20 04:56:32;;;;;;;;;;;;;;;26.09;34.57;99688.59;4918473;29;20119;-79
2021/07/20 04:59:00;;;;;;;11.27;3.78;;;;;;;26.21;34.61;99694.28;4900970;29;20282;-79
2021/07/20 05:01:32;;;;;;;18.77;4.93;;;;;;;26.24;33.79;99697.38;4914089;29;20088;-78
2021/07/20 05:04:02;;;;;;;11.77;4.63;;;;;;;26.22;33.91;99702.09;4911482;29;20111;-79
2021/07/20 05:06:46;;;;;;;10.20;4.40;;;;;;;26.22;33.82;99710.13;4901700;29;20074;-79
2021/07/20 05:09:14;;;;;;;8.02;4.45;;;;;;;26.53;35.05;99712.50;4901218;29;20047;-80
2021/07/20 05:11:41;;;;;;;12.70;5.47;;;;;;;26.41;37.45;99721.16;4918129;29;20064;-79
2021/07/20 05:14:12;;;;;;;13.98;5.32;;;;;;;26.05;38.60;99725.56;4901061;29;20504;-79
2021/07/20 05:16:41;;;;;;;8.80;4.07;;;;;;;25.84;38.44;99728.22;4900896;29;20142;-78
2021/07/20 05:19:11;;;;;;;12.88;4.38;;;;;;;25.90;37.82;99732.78;4902696;29;20075;-78
2021/07/20 05:21:51;;;;;;;14.07;4.22;;;;;;;26.32;35.86;99737.34;4887366;29;20053;-80
2021/07/20 05:24:24;;;;;;;8.40;5.00;;;;;;;26.49;34.91;99727.25;4903961;29;20052;-83
2021/07/20 05:27:04;;;;;;;14.60;4.88;;;;;;;26.04;36.40;99731.06;4907245;29;20052;-82
2021/07/20 05:29:35;;;;;;;12.15;4.53;;;;;;;26.38;36.49;99733.09;4898606;29;20116;-80
2021/07/20 05:32:20;;;;;;;9.40;4.13;;;;;;;26.67;36.15;99739.31;4895870;29;20040;-80
2021/07/20 05:34:51;;;;;;;25.80;5.55;;;;;;;26.74;35.40;99737.50;4905689;29;20139;-79
2021/07/20 05:37:19;;;;;;;8.23;3.78;;;;;;;26.60;35.47;99736.59;4895779;29;20056;-80
2021/07/20 05:39:50;;;;;;;10.73;4.00;;;;;;;26.97;34.80;99735.44;4892837;29;20049;-81
2021/07/20 05:42:22;;;;;;;15.15;5.80;;;;;;;27.00;35.49;99737.72;4891566;29;20100;-78
2021/07/20 05:44:52;;;;;;;9.48;3.35;;;;;;;26.97;35.70;99735.44;4899430;29;20042;-80
2021/07/20 05:47:20;;;;;;;15.80;5.82;;;;;;;27.03;35.67;99740.00;4888738;29;20373;-78
2021/07/20 05:50:01;;;;;;;13.73;4.63;;;;;;;26.93;35.91;99752.06;4898500;29;20055;-79
2021/07/20 05:52:50;;;;;;;13.70;5.30;;;;;;;26.92;36.40;99751.25;4904563;29;20036;-80
2021/07/20 05:55:20;;;;;;;9.40;4.85;;;;;;;26.27;38.39;99744.28;4889752;29;20517;-82
2021/07/20 05:57:49;;;;;;;11.70;5.10;;;;;;;26.65;38.82;99747.53;4896104;29;20492;-79
2021/07/20 06:00:27;;;;;;;17.42;5.63;;;;;;;26.82;39.17;99756.94;4907998;29;20222;-81
2021/07/20 06:03:00;;;;;;;18.13;4.80;;;;;;;27.11;39.18;99758.63;4895198;29;20092;-84
2021/07/20 06:05:28;;;;;;;7.60;4.63;;;;;;;26.74;39.70;99758.91;4897654;29;20067;-83
2021/07/20 06:07:56;;;;;;;9.43;5.38;;;;;;;26.47;40.85;99765.88;4898068;29;20087;-82
2021/07/20 06:10:24;;;;;;;8.10;4.93;;;;;;;26.73;40.70;99770.63;4897578;29;20053;-79
2021/07/20 06:12:53;;;;;;;11.98;5.57;;;;;;;26.70;41.42;99765.69;4897091;29;20104;-79
2021/07/20 06:15:22;;;;;;;14.00;6.20;;;;;;;26.66;41.54;99775.09;4897040;29;20076;-80
2021/07/20 06:17:49;;;;;;;11.35;6.38;;;;;;;26.46;42.09;99777.56;4897581;29;20143;-80
2021/07/20 06:20:16;;;;;;;17.05;5.95;;;;;;;26.73;41.66;99779.47;4897021;29;20139;-79
2021/07/20 06:22:50;;;;;;;10.63;5.72;;;;;;;26.51;42.01;99778.66;4897618;29;20045;-78
2021/07/20 06:25:24;;;;;;;14.02;5.80;;;;;;;26.66;41.62;99777.78;4895667;29;20123;-79
2021/07/20 06:27:52;;;;;;;15.55;5.90;;;;;;;26.72;41.54;99785.00;4895821;29;20496;-82
2021/07/20 06:30:20;;;;;;;11.93;6.63;;;;;;;26.39;42.10;99785.50;4895766;29;20036;-73
2021/07/20 06:32:48;;;;;;;16.20;7.05;;;;;;;26.75;41.20;99793.50;4893519;29;20045;-73
2021/07/20 06:35:16;;;;;;;12.52;4.38;;;;;;;26.92;41.05;99790.53;4893619;29;20044;-73
2021/07/20 06:37:46;;;;;;;11.18;4.65;;;;;;;26.85;40.52;99801.19;4891052;29;20123;-72
2021/07/20 06:40:18;;;;;;;13.40;6.50;;;;;;;27.03;40.08;99804.19;4893723;29;20040;-73
2021/07/20 06:42:46;;;;;;;9.68;4.55;;;;;;;26.89;39.35;99799.75;4893877;29;20079;-73
2021/07/20 06:45:15;;;;;;;11.98;4.75;;;;;;;26.87;38.20;99796.47;4896767;29;20032;-75
2021/07/20 06:47:45;;;;;;;12.95;4.20;;;;;;;26.80;38.35;99798.25;4896054;29;20052;-75
2021/07/20 06:50:17;;;;;;;9.05;4.47;;;;;;;27.13;38.81;99799.38;4897533;29;20131;-75
2021/07/20 06:52:46;;;;;;;6.72;4.65;;;;;;;26.98;38.75;99806.63;4894193;29;20048;-75
2021/07/20 06:55:13;;;;;;;13.20;4.70;;;;;;;27.02;38.36;99801.72;4896671;29;20143;-74
2021/07/20 06:57:46;;;;;;;12.10;4.38;;;;;;;27.38;38.34;99804.28;4895457;29;20047;-75
2021/07/20 07:00:16;;;;;;;8.32;4.28;;;;;;;27.71;37.76;99801.81;4896084;29;20047;-74
2021/07/20 07:02:46;;;;;;;15.25;5.15;;;;;;;27.67;37.26;99803.19;4889413;29;20910;-74
2021/07/20 07:05:16;;;;;;;9.63;4.03;;;;;;;27.58;37.24;99801.72;4893759;29;20519;-74
2021/07/20 07:07:46;;;;;;;21.92;5.43;;;;;;;27.61;37.07;99807.50;4896795;29;20072;-72
2021/07/20 07:10:15;;;;;;;12.25;4.43;;;;;;;27.69;37.83;99804.63;4896283;29;20044;-74
2021/07/20 07:12:46;;;;;;;19.67;6.22;;;;;;;28.03;36.10;99804.84;4894398;29;20084;-74
2021/07/20 07:15:14;;;;;;;10.82;5.43;;;;;;;27.81;36.04;99807.63;4891116;29;20060;-76
2021/07/20 07:17:41;;;;;;;12.73;4.53;;;;;;;27.73;36.80;99807.78;4894901;29;20127;-74
2021/07/20 07:20:18;;;;;;;8.82;4.95;;;;;;;27.57;37.26;99816.94;4886192;29;20397;-73
2021/07/20 07:22:47;;;;;;;12.77;5.82;;;;;;;27.72;38.04;99805.31;4911109;29;20048;-73
2021/07/20 07:25:16;;;;;;;12.15;4.82;;;;;;;27.61;37.62;99818.22;4909076;29;20048;-73
2021/07/20 07:27:45;;;;;;;13.38;5.28;;;;;;;27.68;36.89;99813.72;4912002;29;20044;-75
2021/07/20 07:30:12;;;;;;;17.30;4.82;;;;;;;27.49;37.82;99817.13;4909602;29;20048;-73
2021/07/20 07:32:39;;;;;;;12.15;4.68;;;;;;;27.89;37.89;99812.81;4897418;29;20448;-74
2021/07/20 07:35:07;;;;;;;14.07;4.03;;;;;;;27.85;37.95;99818.75;4907756;29;20135;-74
2021/07/20 07:37:35;;;;;;;22.58;6.63;;;;;;;27.65;37.51;99813.28;4913166;29;20044;-74
2021/07/20 07:40:06;;;;;;;12.40;4.35;;;;;;;27.78;37.59;99821.41;4905855;29;20496;-74
2021/07/20 07:42:35;;;;;;;10.75;4.72;;;;;;;27.57;37.88;99816.94;4895137;29;20088;-74
2021/07/20 07:45:05;;;;;;;7.70;4.47;;;;;;;27.83;37.57;99820.81;4896948;29;20048;-74
2021/07/20 07:47:35;;;;;;;8.43;4.07;;;;;;;27.74;37.84;99816.66;4913888;29;20044;-74
2021/07/20 07:50:06;;;;;;;11.27;4.32;;;;;;;27.70;38.58;99810.88;4896875;29;20704;-76
2021/07/20 07:52:36;;;;;;;11.75;4.40;;;;;;;27.75;38.04;99808.44;4912615;29;20048;-77
2021/07/20 07:55:04;;;;;;;9.25;4.30;;;;;;;27.89;38.07;99815.50;4912951;29;20131;-77
2021/07/20 07:57:32;;;;;;;10.95;4.57;;;;;;;27.80;38.82;99813.16;4911385;29;20632;-78
2021/07/20 08:00:00;;;;;;;8.68;4.55;;;;;;;27.76;39.37;99811.94;4910577;29;20054;-77
2021/07/20 08:02:30;;;;;;;18.45;4.80;;;;;;;27.54;39.50;99817.34;4911027;29;20036;-77
2021/07/20 08:05:00;;;;;;;10.30;4.15;;;;;;;27.78;39.22;99815.25;4906510;29;20044;-78
2021/07/20 08:07:28;;;;;;;9.60;5.70;;;;;;;27.71;39.58;99817.88;4912992;29;20179;-79
2021/07/20 08:09:57;;;;;;;16.23;5.10;;;;;;;27.66;39.96;99818.44;4913461;29;21026;-79
2021/07/20 08:12:27;;;;;;;6.53;4.88;;;;;;;27.81;40.11;99814.84;4910091;29;20139;-77
2021/07/20 08:14:54;;;;;;;9.90;4.88;;;;;;;27.56;39.97;99814.47;4910771;29;20127;-79
2021/07/20 08:17:25;;;;;;;10.18;4.18;;;;;;;27.76;39.88;99818.13;4911530;29;20040;-78
2021/07/20 08:19:55;;;;;;;13.88;4.65;;;;;;;27.98;40.18;99818.00;4912753;29;20086;-78
2021/07/20 08:22:23;;;;;;;9.40;5.50;;;;;;;27.82;40.57;99814.66;4912762;29;20167;-78
2021/07/20 08:24:57;;;;;;;17.92;6.40;;;;;;;27.88;40.14;99811.16;4910895;29;20102;-78
2021/07/20 08:27:43;;;;;;;17.10;6.45;;;;;;;27.81;40.67;99817.53;4911543;29;20103;-79
2021/07/20 08:30:11;;;;;;;9.23;4.40;;;;;;;27.87;40.71;99814.06;4910855;29;20100;-79
2021/07/20 08:33:06;;;;;;;7.00;4.53;;;;;;;28.02;40.83;99809.38;4912823;29;20172;-80
2021/07/20 08:35:35;;;;;;;9.20;4.63;;;;;;;27.88;40.96;99818.38;4910935;29;20048;-78
2021/07/20 08:38:07;;;;;;;6.20;4.63;;;;;;;27.88;40.73;99818.38;4912349;29;20055;-80
2021/07/20 08:40:49;;;;;;;6.90;4.50;;;;;;;28.16;40.54;99812.91;4897786;29;20044;-79
2021/07/20 08:43:27;;;;;;;7.00;4.43;;;;;;;28.04;40.88;99814.53;4914996;29;20170;-80
2021/07/20 08:46:09;;;;;;;9.25;4.97;;;;;;;28.05;41.07;99817.00;4913945;29;20040;-80
2021/07/20 08:48:46;;;;;;;8.68;4.15;;;;;;;27.89;41.25;99814.66;4913424;29;20048;-79
2021/07/20 08:51:20;;;;;;;9.57;4.30;;;;;;;27.97;41.58;99819.03;4916632;29;20036;-77
2021/07/20 08:53:53;;;;;;;9.23;4.60;;;;;;;28.30;40.32;99817.28;4917168;29;20056;-78
2021/07/20 08:56:23;;;;;;;7.13;4.60;;;;;;;28.15;41.42;99812.09;4913536;29;20488;-78
2021/07/20 08:59:01;;;;;;;5.32;4.03;;;;;;;28.26;41.22;99817.91;4913889;29;20044;-76
2021/07/20 09:01:49;;;;;;;8.75;5.32;;;;;;;28.37;40.73;99809.28;4915419;29;20055;-76
2021/07/20 09:04:35;;;;;;;6.93;4.55;;;;;;;28.08;41.67;99813.94;4916703;29;20040;-76
2021/07/20 09:07:09;;;;;;;10.55;5.20;;;;;;;28.31;41.29;99813.56;4913815;29;20128;-78
2021/07/20 09:09:44;;;;;;;8.15;4.97;;;;;;;28.09;41.81;99809.41;4915618;29;20135;-76
2021/07/20 09:12:18;;;;;;;6.53;4.60;;;;;;;28.35;40.55;99808.69;4914618;29;20385;-79
2021/07/20 09:15:01;;;;;;;11.80;5.18;;;;;;;28.28;41.58;99805.94;4900838;29;20076;-77
2021/07/20 09:17:34;;;;;;;12.47;5.70;;;;;;;28.42;41.35;99810.34;4915939;29;20048;-77
2021/07/20 09:20:07;;;;;;;9.82;5.10;;;;;;;28.49;41.41;99809.50;4929736;29;20440;-76
2021/07/20 09:22:42;;;;;;;8.32;4.93;;;;;;;28.50;41.73;99811.16;4930127;29;20052;-79
2021/07/20 09:25:15;;;;;;;7.07;4.95;;;;;;;28.62;41.04;99810.38;4927058;29;20398;-75
2021/07/20 09:27:51;;;;;;;8.50;4.70;;;;;;;28.44;41.58;99815.47;4926829;29;20428;-77
2021/07/20 09:30:23;;;;;;;13.40;6.22;;;;;;;28.52;41.47;99815.31;4925274;29;20386;-76
2021/07/20 09:33:05;;;;;;;11.77;7.65;;;;;;;28.55;41.66;99819.41;4900784;29;20048;-78
2021/07/20 09:35:43;;;;;;;8.60;5.35;;;;;;;28.25;41.80;99813.56;4914763;29;20050;-76
2021/07/20 09:38:34;;;;;;;13.10;4.88;;;;;;;28.58;41.53;99813.66;4916847;29;20127;-77
2021/07/20 09:41:20;;;;;;;15.70;6.15;;;;;;;28.44;41.94;99812.81;4915260;29;20084;-76
2021/07/20 09:43:58;;;;;;;10.52;5.53;;;;;;;28.67;41.19;99813.28;4919344;29;20036;-77
2021/07/20 09:46:57;;;;;;;13.45;5.63;;;;;;;28.89;40.54;99813.06;4917830;29;20036;-77
2021/07/20 09:49:56;;;;;;;7.50;5.20;;;;;;;28.76;41.01;99805.00;4910844;29;20506;-77
2021/07/20 09:52:39;;;;;;;12.63;6.07;;;;;;;28.94;40.80;99808.78;4909236;29;20127;-78
2021/07/20 09:55:43;;;;;;;13.40;5.55;;;;;;;29.11;40.55;99814.53;4916352;29;20139;-75
2021/07/20 09:58:30;;;;;;;11.90;6.60;;;;;;;28.88;41.05;99806.06;4915981;29;20075;-75
2021/07/20 10:01:36;;;;;;;11.27;5.40;;;;;;;29.06;40.70;99806.28;4916051;29;20044;-76
2021/07/20 10:04:20;;;;;;;10.38;6.18;;;;;;;29.32;40.24;99810.78;4880897;29;20054;-80
2021/07/20 10:06:52;;;;;;;15.95;5.07;;;;;;;29.20;40.99;99805.25;4917732;29;20131;-74
2021/07/20 10:09:21;;;;;;;14.43;4.90;;;;;;;29.18;40.19;99809.16;4916077;29;20036;-75
2021/07/20 10:12:04;;;;;;;11.38;5.63;;;;;;;28.92;41.05;99810.81;4920076;29;20054;-74
2021/07/20 10:14:53;;;;;;;8.68;4.97;;;;;;;29.10;41.23;99812.91;4916778;29;20052;-74
2021/07/20 10:17:33;;;;;;;11.15;5.40;;;;;;;29.05;41.07;99801.97;4916397;29;20134;-73
2021/07/20 10:20:11;;;;;;;10.48;5.30;;;;;;;29.32;40.90;99805.44;4914666;29;20048;-75
2021/07/20 10:22:52;;;;;;;8.65;5.53;;;;;;;29.38;40.45;99806.44;4911540;29;20135;-72
2021/07/20 10:25:23;;;;;;;12.18;5.45;;;;;;;29.15;41.03;99799.69;4913184;29;20487;-75
2021/07/20 10:28:02;;;;;;;6.32;5.53;;;;;;;29.30;41.22;99801.31;4914838;29;20499;-77
2021/07/20 10:30:34;;;;;;;13.02;5.65;;;;;;;29.48;40.21;99796.09;4916398;29;20567;-78
2021/07/20 10:33:25;;;;;;;9.65;4.60;;;;;;;29.62;40.31;99787.00;4919566;29;20123;-77
2021/07/20 10:36:03;;;;;;;6.60;5.30;;;;;;;29.42;39.96;99802.31;4912584;29;20044;-77
2021/07/20 10:38:45;;;;;;;12.70;4.90;;;;;;;29.61;40.57;99790.72;4914743;29;20056;-76
2021/07/20 10:41:18;;;;;;;6.13;4.28;;;;;;;29.52;39.81;99785.78;4914502;29;20048;-78
2021/07/20 10:44:03;;;;;;;14.10;5.65;;;;;;;29.58;39.88;99791.16;4913857;29;20063;-77
2021/07/20 10:46:32;;;;;;;6.20;4.88;;;;;;;29.37;40.61;99791.38;4913624;29;20032;-79
2021/07/20 10:49:14;;;;;;;13.07;5.55;;;;;;;29.44;40.35;99790.31;4916415;29;20048;-76
2021/07/20 10:51:44;;;;;;;9.10;5.22;;;;;;;29.67;40.39;99781.84;4915385;29;20044;-76
2021/07/20 10:54:26;;;;;;;8.98;5.75;;;;;;;29.72;40.25;99791.91;4915503;29;20062;-74
2021/07/20 10:57:01;;;;;;;11.88;6.05;;;;;;;29.56;39.96;99779.78;4914897;29;20040;-78
2021/07/20 11:00:05;;;;;;;8.15;5.43;;;;;;;29.69;40.09;99778.94;4914262;29;20050;-76
2021/07/20 11:02:39;;;;;;;8.70;5.03;;;;;;;29.81;38.67;99776.41;4907259;29;20043;-75
2021/07/20 11:05:09;;;;;;;10.05;4.63;;;;;;;29.67;39.87;99768.41;4912954;29;20044;-78
2021/07/20 11:08:06;;;;;;;8.43;5.03;;;;;;;29.90;39.66;99761.69;4898181;29;20135;-76
2021/07/20 11:10:37;;;;;;;6.50;4.75;;;;;;;29.86;39.68;99765.84;4911370;29;20130;-78
2021/07/20 11:13:07;;;;;;;7.10;5.80;;;;;;;29.72;40.57;99767.75;4895760;29;20123;-79
2021/07/20 11:15:37;;;;;;;8.35;5.95;;;;;;;29.53;40.80;99779.38;4915351;29;20167;-78
2021/07/20 11:18:08;;;;;;;8.98;5.47;;;;;;;29.77;40.38;99767.09;4915442;29;20131;-76
2021/07/20 11:20:36;;;;;;;7.68;6.00;;;;;;;29.81;40.50;99760.28;4914880;29;20070;-76
2021/07/20 11:23:05;;;;;;;8.75;5.22;;;;;;;29.89;40.15;99751.97;4915120;29;20123;-78
2021/07/20 11:25:33;;;;;;;12.63;5.57;;;;;;;30.17;39.51;99754.34;4915014;29;20072;-79
2021/07/20 11:28:01;;;;;;;8.77;4.95;;;;;;;30.01;39.15;99753.78;4913372;29;20083;-76
2021/07/20 11:30:35;;;;;;;10.43;5.30;;;;;;;30.11;38.96;99749.78;4915210;29;20563;-77
2021/07/20 11:33:08;;;;;;;5.93;5.22;;;;;;;30.24;38.91;99752.41;4915625;29;20472;-77
2021/07/20 11:35:39;;;;;;;8.55;5.20;;;;;;;30.14;39.14;99747.50;4899562;29;20048;-74
2021/07/20 11:38:10;;;;;;;8.20;4.72;;;;;;;30.38;38.31;99748.63;4915533;29;20050;-75
2021/07/20 11:40:43;;;;;;;8.45;5.20;;;;;;;30.11;39.41;99756.00;4915607;29;20097;-75
2021/07/20 11:43:16;;;;;;;43.58;6.82;;;;;;;30.04;39.34;99735.56;4914984;29;20138;-76
2021/07/20 11:46:09;;;;;;;13.38;5.63;;;;;;;30.28;38.99;99740.19;4915669;29;20088;-77
2021/07/20 11:48:48;;;;;;;37.75;6.75;;;;;;;30.27;38.95;99739.38;4914864;29;20051;-78
2021/07/20 11:51:31;;;;;;;6.60;4.75;;;;;;;30.43;38.31;99737.22;4912172;29;20048;-75
2021/07/20 11:54:05;;;;;;;6.43;4.68;;;;;;;30.43;38.49;99729.13;4914220;29;20048;-75
2021/07/20 11:56:58;;;;;;;7.13;3.58;;;;;;;30.44;37.37;99734.28;4914592;29;20040;-76
2021/07/20 11:59:44;;;;;;;5.93;4.57;;;;;;;30.43;38.14;99737.22;4913603;29;20055;-77
2021/07/20 12:02:35;;;;;;;8.43;4.57;;;;;;;30.54;37.46;99731.13;4913452;29;20048;-78
2021/07/20 12:05:21;;;;;;;8.15;4.10;;;;;;;30.46;37.35;99731.38;4915674;29;20040;-78